sensor_id;sensor_type;location;lat;lon;timestamp;P1;durP1;ratioP1;P2;durP2;ratioP2
42066;SDS011;27734;47.028;28.820;2023-05-16T00:00:25;8.17;;;4.67;;
42066;SDS011;27734;47.028;28.820;2023-05-16T00:03:14;7.67;;;4.50;;
42066;SDS011;27734;47.028;28.820;2023-05-16T00:05:43;6.87;;;4.53;;
42066;SDS011;27734;47.028;28.820;2023-05-16T00:08:11;7.23;;;4.50;;
42066;SDS011;27734;47.028;28.820;2023-05-16T00:10:40;13.20;;;5.10;;
42066;SDS011;27734;47.028;28.820;2023-05-16T00:13:08;9.10;;;4.90;;
42066;SDS011;27734;47.028;28.820;2023-05-16T00:15:37;8.00;;;4.90;;
42066;SDS011;27734;47.028;28.820;2023-05-16T00:18:05;11.60;;;5.13;;
42066;SDS011;27734;47.028;28.820;2023-05-16T00:20:34;12.20;;;4.93;;
42066;SDS011;27734;47.028;28.820;2023-05-16T00:23:03;10.57;;;5.00;;
42066;SDS011;27734;47.028;28.820;2023-05-16T00:25:31;7.97;;;4.83;;
42066;SDS011;27734;47.028;28.820;2023-05-16T00:28:00;12.03;;;4.90;;
42066;SDS011;27734;47.028;28.820;2023-05-16T00:30:30;8.57;;;5.10;;
42066;SDS011;27734;47.028;28.820;2023-05-16T00:32:59;8.23;;;5.00;;
42066;SDS011;27734;47.028;28.820;2023-05-16T00:35:28;8.03;;;5.00;;
42066;SDS011;27734;47.028;28.820;2023-05-16T00:37:56;11.87;;;5.30;;
42066;SDS011;27734;47.028;28.820;2023-05-16T00:40:25;10.77;;;5.63;;
42066;SDS011;27734;47.028;28.820;2023-05-16T00:42:53;10.13;;;4.97;;
42066;SDS011;27734;47.028;28.820;2023-05-16T00:45:22;10.40;;;4.80;;
42066;SDS011;27734;47.028;28.820;2023-05-16T00:47:51;11.73;;;5.40;;
42066;SDS011;27734;47.028;28.820;2023-05-16T00:50:19;12.57;;;5.90;;
42066;SDS011;27734;47.028;28.820;2023-05-16T00:52:49;11.70;;;5.40;;
42066;SDS011;27734;47.028;28.820;2023-05-16T00:55:18;9.47;;;5.40;;
42066;SDS011;27734;47.028;28.820;2023-05-16T00:57:46;10.73;;;5.30;;
42066;SDS011;27734;47.028;28.820;2023-05-16T01:00:15;9.90;;;5.53;;
42066;SDS011;27734;47.028;28.820;2023-05-16T01:02:45;11.33;;;5.33;;
42066;SDS011;27734;47.028;28.820;2023-05-16T01:05:14;9.30;;;5.60;;
42066;SDS011;27734;47.028;28.820;2023-05-16T01:07:43;12.00;;;5.47;;
42066;SDS011;27734;47.028;28.820;2023-05-16T01:10:11;11.13;;;5.27;;
42066;SDS011;27734;47.028;28.820;2023-05-16T01:12:44;11.00;;;5.57;;
42066;SDS011;27734;47.028;28.820;2023-05-16T01:15:24;10.95;;;5.55;;
42066;SDS011;27734;47.028;28.820;2023-05-16T01:17:59;10.25;;;5.78;;
42066;SDS011;27734;47.028;28.820;2023-05-16T01:20:36;9.70;;;5.10;;
42066;SDS011;27734;47.028;28.820;2023-05-16T01:23:20;10.80;;;5.60;;
42066;SDS011;27734;47.028;28.820;2023-05-16T01:26:16;12.23;;;5.33;;
42066;SDS011;27734;47.028;28.820;2023-05-16T01:28:47;12.50;;;5.77;;
42066;SDS011;27734;47.028;28.820;2023-05-16T01:31:18;12.70;;;5.80;;
42066;SDS011;27734;47.028;28.820;2023-05-16T01:33:48;11.50;;;6.00;;
42066;SDS011;27734;47.028;28.820;2023-05-16T01:36:20;15.07;;;5.77;;
42066;SDS011;27734;47.028;28.820;2023-05-16T01:38:58;9.80;;;5.47;;
42066;SDS011;27734;47.028;28.820;2023-05-16T01:41:37;10.63;;;5.40;;
42066;SDS011;27734;47.028;28.820;2023-05-16T01:44:17;10.43;;;5.43;;
42066;SDS011;27734;47.028;28.820;2023-05-16T01:46:51;12.13;;;5.20;;
42066;SDS011;27734;47.028;28.820;2023-05-16T01:49:25;15.15;;;5.60;;
42066;SDS011;27734;47.028;28.820;2023-05-16T01:54:30;14.07;;;5.37;;
42066;SDS011;27734;47.028;28.820;2023-05-16T01:57:01;10.40;;;5.77;;
42066;SDS011;27734;47.028;28.820;2023-05-16T01:59:34;10.30;;;5.40;;
42066;SDS011;27734;47.028;28.820;2023-05-16T02:02:05;9.73;;;5.67;;
42066;SDS011;27734;47.028;28.820;2023-05-16T02:04:33;11.60;;;5.80;;
42066;SDS011;27734;47.028;28.820;2023-05-16T02:07:02;10.15;;;5.55;;
42066;SDS011;27734;47.028;28.820;2023-05-16T02:09:30;11.83;;;6.10;;
42066;SDS011;27734;47.028;28.820;2023-05-16T02:11:59;11.57;;;5.60;;
42066;SDS011;27734;47.028;28.820;2023-05-16T02:14:29;11.43;;;5.63;;
42066;SDS011;27734;47.028;28.820;2023-05-16T02:16:58;12.27;;;6.00;;
42066;SDS011;27734;47.028;28.820;2023-05-16T02:19:26;12.23;;;5.80;;
42066;SDS011;27734;47.028;28.820;2023-05-16T02:21:55;10.90;;;5.73;;
42066;SDS011;27734;47.028;28.820;2023-05-16T02:24:23;11.17;;;5.87;;
42066;SDS011;27734;47.028;28.820;2023-05-16T02:26:52;9.97;;;5.83;;
42066;SDS011;27734;47.028;28.820;2023-05-16T02:29:20;10.77;;;5.80;;
42066;SDS011;27734;47.028;28.820;2023-05-16T02:31:49;10.57;;;5.57;;
42066;SDS011;27734;47.028;28.820;2023-05-16T02:34:17;9.75;;;6.05;;
42066;SDS011;27734;47.028;28.820;2023-05-16T02:36:47;14.63;;;5.97;;
42066;SDS011;27734;47.028;28.820;2023-05-16T02:39:15;12.23;;;6.27;;
42066;SDS011;27734;47.028;28.820;2023-05-16T02:41:44;12.97;;;6.23;;
42066;SDS011;27734;47.028;28.820;2023-05-16T02:44:13;10.83;;;5.90;;
42066;SDS011;27734;47.028;28.820;2023-05-16T02:46:41;11.53;;;6.07;;
42066;SDS011;27734;47.028;28.820;2023-05-16T02:49:10;13.00;;;6.30;;
42066;SDS011;27734;47.028;28.820;2023-05-16T02:51:39;11.00;;;6.10;;
42066;SDS011;27734;47.028;28.820;2023-05-16T02:54:07;11.17;;;6.07;;
42066;SDS011;27734;47.028;28.820;2023-05-16T02:56:36;11.87;;;5.90;;
42066;SDS011;27734;47.028;28.820;2023-05-16T02:59:04;12.23;;;6.13;;
42066;SDS011;27734;47.028;28.820;2023-05-16T03:01:33;13.77;;;5.80;;
42066;SDS011;27734;47.028;28.820;2023-05-16T03:04:01;13.30;;;6.93;;
42066;SDS011;27734;47.028;28.820;2023-05-16T03:06:30;14.87;;;5.77;;
42066;SDS011;27734;47.028;28.820;2023-05-16T03:08:59;14.50;;;6.13;;
42066;SDS011;27734;47.028;28.820;2023-05-16T03:11:28;10.77;;;5.80;;
42066;SDS011;27734;47.028;28.820;2023-05-16T03:13:57;14.37;;;6.10;;
42066;SDS011;27734;47.028;28.820;2023-05-16T03:16:25;12.60;;;5.73;;
42066;SDS011;27734;47.028;28.820;2023-05-16T03:18:54;12.40;;;6.20;;
42066;SDS011;27734;47.028;28.820;2023-05-16T03:21:23;12.60;;;5.97;;
42066;SDS011;27734;47.028;28.820;2023-05-16T03:23:51;14.20;;;6.70;;
42066;SDS011;27734;47.028;28.820;2023-05-16T03:26:21;9.90;;;5.80;;
42066;SDS011;27734;47.028;28.820;2023-05-16T03:28:51;11.27;;;6.00;;
42066;SDS011;27734;47.028;28.820;2023-05-16T03:31:20;14.67;;;6.30;;
42066;SDS011;27734;47.028;28.820;2023-05-16T03:33:48;12.77;;;6.47;;
42066;SDS011;27734;47.028;28.820;2023-05-16T03:36:17;14.57;;;6.43;;
42066;SDS011;27734;47.028;28.820;2023-05-16T03:38:47;15.57;;;6.77;;
42066;SDS011;27734;47.028;28.820;2023-05-16T03:41:16;16.20;;;6.93;;
42066;SDS011;27734;47.028;28.820;2023-05-16T03:43:44;15.10;;;7.23;;
42066;SDS011;27734;47.028;28.820;2023-05-16T03:46:13;14.50;;;6.67;;
42066;SDS011;27734;47.028;28.820;2023-05-16T03:48:41;12.27;;;6.17;;
42066;SDS011;27734;47.028;28.820;2023-05-16T03:51:10;12.13;;;6.07;;
42066;SDS011;27734;47.028;28.820;2023-05-16T03:53:38;10.07;;;5.87;;
42066;SDS011;27734;47.028;28.820;2023-05-16T03:56:07;14.83;;;6.13;;
42066;SDS011;27734;47.028;28.820;2023-05-16T03:58:36;10.73;;;6.00;;
42066;SDS011;27734;47.028;28.820;2023-05-16T04:01:04;10.87;;;5.83;;
42066;SDS011;27734;47.028;28.820;2023-05-16T04:03:33;11.10;;;5.57;;
42066;SDS011;27734;47.028;28.820;2023-05-16T04:06:02;11.77;;;6.00;;
42066;SDS011;27734;47.028;28.820;2023-05-16T04:08:31;10.05;;;6.00;;
42066;SDS011;27734;47.028;28.820;2023-05-16T04:11:00;12.10;;;6.03;;
42066;SDS011;27734;47.028;28.820;2023-05-16T04:13:28;8.93;;;5.13;;
42066;SDS011;27734;47.028;28.820;2023-05-16T04:15:57;10.70;;;5.60;;
42066;SDS011;27734;47.028;28.820;2023-05-16T04:18:25;10.97;;;5.70;;
42066;SDS011;27734;47.028;28.820;2023-05-16T04:20:54;12.57;;;6.00;;
42066;SDS011;27734;47.028;28.820;2023-05-16T04:23:22;12.93;;;6.03;;
42066;SDS011;27734;47.028;28.820;2023-05-16T04:25:54;10.57;;;5.90;;
42066;SDS011;27734;47.028;28.820;2023-05-16T04:28:23;8.63;;;5.73;;
42066;SDS011;27734;47.028;28.820;2023-05-16T04:30:51;12.73;;;6.03;;
42066;SDS011;27734;47.028;28.820;2023-05-16T04:33:20;17.07;;;6.10;;
42066;SDS011;27734;47.028;28.820;2023-05-16T04:35:48;12.33;;;5.77;;
42066;SDS011;27734;47.028;28.820;2023-05-16T04:38:18;8.93;;;5.33;;
42066;SDS011;27734;47.028;28.820;2023-05-16T04:40:47;10.50;;;5.83;;
42066;SDS011;27734;47.028;28.820;2023-05-16T04:43:17;12.37;;;5.97;;
42066;SDS011;27734;47.028;28.820;2023-05-16T04:45:46;15.60;;;6.70;;
42066;SDS011;27734;47.028;28.820;2023-05-16T04:48:14;10.27;;;5.60;;
42066;SDS011;27734;47.028;28.820;2023-05-16T04:50:43;9.75;;;5.50;;
42066;SDS011;27734;47.028;28.820;2023-05-16T04:53:12;11.77;;;5.87;;
42066;SDS011;27734;47.028;28.820;2023-05-16T04:55:41;11.23;;;5.70;;
42066;SDS011;27734;47.028;28.820;2023-05-16T04:58:12;11.23;;;5.50;;
42066;SDS011;27734;47.028;28.820;2023-05-16T05:00:41;13.70;;;5.23;;
42066;SDS011;27734;47.028;28.820;2023-05-16T05:03:09;11.77;;;5.90;;
42066;SDS011;27734;47.028;28.820;2023-05-16T05:05:38;12.00;;;5.37;;
42066;SDS011;27734;47.028;28.820;2023-05-16T05:08:06;9.20;;;5.20;;
42066;SDS011;27734;47.028;28.820;2023-05-16T05:10:35;11.13;;;5.10;;
42066;SDS011;27734;47.028;28.820;2023-05-16T05:13:04;11.50;;;5.57;;
42066;SDS011;27734;47.028;28.820;2023-05-16T05:15:32;8.83;;;5.40;;
42066;SDS011;27734;47.028;28.820;2023-05-16T05:18:01;11.40;;;5.03;;
42066;SDS011;27734;47.028;28.820;2023-05-16T05:20:30;12.00;;;6.70;;
42066;SDS011;27734;47.028;28.820;2023-05-16T05:22:59;9.45;;;5.55;;
42066;SDS011;27734;47.028;28.820;2023-05-16T05:25:28;8.47;;;5.13;;
42066;SDS011;27734;47.028;28.820;2023-05-16T05:27:59;10.20;;;5.33;;
42066;SDS011;27734;47.028;28.820;2023-05-16T05:30:29;10.23;;;5.20;;
42066;SDS011;27734;47.028;28.820;2023-05-16T05:33:00;10.07;;;5.10;;
42066;SDS011;27734;47.028;28.820;2023-05-16T05:35:31;8.63;;;5.08;;
42066;SDS011;27734;47.028;28.820;2023-05-16T05:38:00;8.83;;;5.00;;
42066;SDS011;27734;47.028;28.820;2023-05-16T05:40:28;10.87;;;5.20;;
42066;SDS011;27734;47.028;28.820;2023-05-16T05:42:57;10.30;;;5.43;;
42066;SDS011;27734;47.028;28.820;2023-05-16T05:45:26;11.10;;;5.50;;
42066;SDS011;27734;47.028;28.820;2023-05-16T05:47:55;9.53;;;5.50;;
42066;SDS011;27734;47.028;28.820;2023-05-16T05:50:23;9.23;;;5.03;;
42066;SDS011;27734;47.028;28.820;2023-05-16T05:52:52;11.13;;;4.80;;
42066;SDS011;27734;47.028;28.820;2023-05-16T05:55:22;9.40;;;5.00;;
42066;SDS011;27734;47.028;28.820;2023-05-16T05:57:50;8.77;;;4.67;;
42066;SDS011;27734;47.028;28.820;2023-05-16T06:00:19;8.97;;;4.90;;
42066;SDS011;27734;47.028;28.820;2023-05-16T06:02:48;9.13;;;5.17;;
42066;SDS011;27734;47.028;28.820;2023-05-16T06:05:20;6.37;;;4.13;;
42066;SDS011;27734;47.028;28.820;2023-05-16T06:08:02;10.57;;;4.83;;
42066;SDS011;27734;47.028;28.820;2023-05-16T06:10:34;7.90;;;4.30;;
42066;SDS011;27734;47.028;28.820;2023-05-16T06:13:03;9.27;;;4.17;;
42066;SDS011;27734;47.028;28.820;2023-05-16T06:15:31;8.07;;;4.30;;
42066;SDS011;27734;47.028;28.820;2023-05-16T06:18:00;8.07;;;4.20;;
42066;SDS011;27734;47.028;28.820;2023-05-16T06:20:29;7.13;;;3.83;;
42066;SDS011;27734;47.028;28.820;2023-05-16T06:22:58;8.13;;;3.93;;
42066;SDS011;27734;47.028;28.820;2023-05-16T06:25:27;6.47;;;4.23;;
42066;SDS011;27734;47.028;28.820;2023-05-16T06:27:56;7.27;;;4.00;;
42066;SDS011;27734;47.028;28.820;2023-05-16T06:30:27;7.83;;;4.13;;
42066;SDS011;27734;47.028;28.820;2023-05-16T06:32:57;10.57;;;4.20;;
42066;SDS011;27734;47.028;28.820;2023-05-16T06:35:26;5.50;;;3.93;;
42066;SDS011;27734;47.028;28.820;2023-05-16T06:37:55;5.80;;;3.80;;
42066;SDS011;27734;47.028;28.820;2023-05-16T06:40:29;7.73;;;4.00;;
42066;SDS011;27734;47.028;28.820;2023-05-16T06:43:02;8.85;;;4.00;;
42066;SDS011;27734;47.028;28.820;2023-05-16T06:45:31;13.57;;;4.17;;
42066;SDS011;27734;47.028;28.820;2023-05-16T06:48:00;9.53;;;4.00;;
42066;SDS011;27734;47.028;28.820;2023-05-16T06:50:30;9.57;;;4.00;;
42066;SDS011;27734;47.028;28.820;2023-05-16T06:53:01;8.63;;;4.20;;
42066;SDS011;27734;47.028;28.820;2023-05-16T06:55:33;7.13;;;3.40;;
42066;SDS011;27734;47.028;28.820;2023-05-16T06:58:05;8.23;;;3.73;;
42066;SDS011;27734;47.028;28.820;2023-05-16T07:00:33;6.27;;;3.77;;
42066;SDS011;27734;47.028;28.820;2023-05-16T07:03:03;6.87;;;3.33;;
42066;SDS011;27734;47.028;28.820;2023-05-16T07:05:33;8.27;;;3.50;;
42066;SDS011;27734;47.028;28.820;2023-05-16T07:08:02;4.83;;;3.60;;
42066;SDS011;27734;47.028;28.820;2023-05-16T07:10:34;9.33;;;3.60;;
42066;SDS011;27734;47.028;28.820;2023-05-16T07:13:03;8.83;;;3.90;;
42066;SDS011;27734;47.028;28.820;2023-05-16T07:15:36;7.13;;;3.63;;
42066;SDS011;27734;47.028;28.820;2023-05-16T07:18:19;5.60;;;3.40;;
42066;SDS011;27734;47.028;28.820;2023-05-16T07:21:04;5.20;;;3.50;;
42066;SDS011;27734;47.028;28.820;2023-05-16T07:23:32;4.63;;;3.20;;
42066;SDS011;27734;47.028;28.820;2023-05-16T07:26:01;10.20;;;3.60;;
42066;SDS011;27734;47.028;28.820;2023-05-16T07:28:36;7.83;;;3.50;;
42066;SDS011;27734;47.028;28.820;2023-05-16T07:31:04;5.67;;;3.70;;
42066;SDS011;27734;47.028;28.820;2023-05-16T07:33:36;4.63;;;3.30;;
42066;SDS011;27734;47.028;28.820;2023-05-16T07:36:11;3.90;;;3.13;;
42066;SDS011;27734;47.028;28.820;2023-05-16T07:38:45;7.07;;;3.60;;
42066;SDS011;27734;47.028;28.820;2023-05-16T07:41:15;5.63;;;3.27;;
42066;SDS011;27734;47.028;28.820;2023-05-16T07:43:45;5.50;;;3.40;;
42066;SDS011;27734;47.028;28.820;2023-05-16T07:46:17;7.97;;;3.37;;
42066;SDS011;27734;47.028;28.820;2023-05-16T07:48:50;5.90;;;3.33;;
42066;SDS011;27734;47.028;28.820;2023-05-16T07:51:22;7.37;;;3.53;;
42066;SDS011;27734;47.028;28.820;2023-05-16T07:53:50;4.67;;;3.33;;
42066;SDS011;27734;47.028;28.820;2023-05-16T07:56:21;5.17;;;3.30;;
42066;SDS011;27734;47.028;28.820;2023-05-16T07:59:17;4.77;;;3.30;;
42066;SDS011;27734;47.028;28.820;2023-05-16T08:01:46;8.33;;;3.33;;
42066;SDS011;27734;47.028;28.820;2023-05-16T08:04:15;6.93;;;3.13;;
42066;SDS011;27734;47.028;28.820;2023-05-16T08:06:43;9.23;;;3.30;;
42066;SDS011;27734;47.028;28.820;2023-05-16T08:09:12;5.43;;;3.50;;
42066;SDS011;27734;47.028;28.820;2023-05-16T08:11:45;5.50;;;3.10;;
42066;SDS011;27734;47.028;28.820;2023-05-16T08:14:14;5.67;;;3.03;;
42066;SDS011;27734;47.028;28.820;2023-05-16T08:16:48;5.70;;;2.90;;
42066;SDS011;27734;47.028;28.820;2023-05-16T08:20:01;7.27;;;3.00;;
42066;SDS011;27734;47.028;28.820;2023-05-16T08:29:29;6.23;;;2.87;;
42066;SDS011;27734;47.028;28.820;2023-05-16T08:32:15;7.10;;;3.17;;
42066;SDS011;27734;47.028;28.820;2023-05-16T08:34:58;5.40;;;3.00;;
42066;SDS011;27734;47.028;28.820;2023-05-16T08:37:36;3.47;;;2.90;;
42066;SDS011;27734;47.028;28.820;2023-05-16T08:41:05;7.43;;;3.20;;
42066;SDS011;27734;47.028;28.820;2023-05-16T08:43:55;6.23;;;3.10;;
42066;SDS011;27734;47.028;28.820;2023-05-16T08:46:28;5.63;;;2.80;;
42066;SDS011;27734;47.028;28.820;2023-05-16T08:49:01;7.65;;;2.92;;
42066;SDS011;27734;47.028;28.820;2023-05-16T08:51:33;4.20;;;2.83;;
42066;SDS011;27734;47.028;28.820;2023-05-16T08:54:05;7.87;;;2.90;;
42066;SDS011;27734;47.028;28.820;2023-05-16T08:56:37;4.73;;;2.90;;
42066;SDS011;27734;47.028;28.820;2023-05-16T08:59:08;6.00;;;3.20;;
42066;SDS011;27734;47.028;28.820;2023-05-16T09:01:37;5.60;;;2.80;;
42066;SDS011;27734;47.028;28.820;2023-05-16T09:04:08;4.10;;;3.00;;
42066;SDS011;27734;47.028;28.820;2023-05-16T09:06:37;4.33;;;3.10;;
42066;SDS011;27734;47.028;28.820;2023-05-16T09:09:06;5.63;;;3.30;;
42066;SDS011;27734;47.028;28.820;2023-05-16T09:11:44;8.13;;;3.17;;
42066;SDS011;27734;47.028;28.820;2023-05-16T09:14:16;9.40;;;3.40;;
42066;SDS011;27734;47.028;28.820;2023-05-16T09:16:45;4.60;;;3.15;;
42066;SDS011;27734;47.028;28.820;2023-05-16T09:19:37;5.87;;;3.20;;
42066;SDS011;27734;47.028;28.820;2023-05-16T09:22:28;7.30;;;3.00;;
42066;SDS011;27734;47.028;28.820;2023-05-16T09:25:01;9.87;;;3.27;;
42066;SDS011;27734;47.028;28.820;2023-05-16T09:27:34;5.92;;;3.17;;
42066;SDS011;27734;47.028;28.820;2023-05-16T09:32:51;5.03;;;2.97;;
42066;SDS011;27734;47.028;28.820;2023-05-16T09:35:32;6.50;;;3.20;;
42066;SDS011;27734;47.028;28.820;2023-05-16T09:38:04;5.57;;;3.30;;
42066;SDS011;27734;47.028;28.820;2023-05-16T09:40:47;6.67;;;3.17;;
42066;SDS011;27734;47.028;28.820;2023-05-16T09:43:22;5.97;;;3.40;;
42066;SDS011;27734;47.028;28.820;2023-05-16T09:45:52;4.57;;;2.93;;
42066;SDS011;27734;47.028;28.820;2023-05-16T09:48:21;7.20;;;3.23;;
42066;SDS011;27734;47.028;28.820;2023-05-16T09:50:54;6.35;;;3.10;;
42066;SDS011;27734;47.028;28.820;2023-05-16T09:53:30;6.13;;;3.40;;
42066;SDS011;27734;47.028;28.820;2023-05-16T09:56:01;6.00;;;3.00;;
42066;SDS011;27734;47.028;28.820;2023-05-16T09:58:34;6.90;;;3.13;;
42066;SDS011;27734;47.028;28.820;2023-05-16T10:01:10;4.80;;;3.17;;
42066;SDS011;27734;47.028;28.820;2023-05-16T10:03:43;6.63;;;2.93;;
42066;SDS011;27734;47.028;28.820;2023-05-16T10:06:16;6.87;;;3.00;;
42066;SDS011;27734;47.028;28.820;2023-05-16T10:08:46;8.77;;;3.23;;
42066;SDS011;27734;47.028;28.820;2023-05-16T10:11:16;6.57;;;3.17;;
42066;SDS011;27734;47.028;28.820;2023-05-16T10:13:54;8.43;;;3.10;;
42066;SDS011;27734;47.028;28.820;2023-05-16T10:16:23;8.53;;;2.90;;
42066;SDS011;27734;47.028;28.820;2023-05-16T10:18:56;5.78;;;3.02;;
42066;SDS011;27734;47.028;28.820;2023-05-16T10:21:30;5.80;;;3.00;;
42066;SDS011;27734;47.028;28.820;2023-05-16T10:24:02;5.17;;;3.13;;
42066;SDS011;27734;47.028;28.820;2023-05-16T10:26:39;4.93;;;3.07;;
42066;SDS011;27734;47.028;28.820;2023-05-16T10:29:08;5.73;;;3.10;;
42066;SDS011;27734;47.028;28.820;2023-05-16T10:31:37;6.87;;;3.03;;
42066;SDS011;27734;47.028;28.820;2023-05-16T10:34:08;5.73;;;3.00;;
42066;SDS011;27734;47.028;28.820;2023-05-16T10:36:37;4.90;;;2.83;;
42066;SDS011;27734;47.028;28.820;2023-05-16T10:39:07;5.47;;;3.17;;
42066;SDS011;27734;47.028;28.820;2023-05-16T10:41:37;6.07;;;3.00;;
42066;SDS011;27734;47.028;28.820;2023-05-16T10:44:11;4.53;;;2.97;;
42066;SDS011;27734;47.028;28.820;2023-05-16T10:46:46;3.70;;;3.00;;
42066;SDS011;27734;47.028;28.820;2023-05-16T10:49:21;6.37;;;3.10;;
42066;SDS011;27734;47.028;28.820;2023-05-16T10:54:37;6.37;;;3.10;;
42066;SDS011;27734;47.028;28.820;2023-05-16T10:57:10;9.90;;;3.00;;
42066;SDS011;27734;47.028;28.820;2023-05-16T10:59:47;4.33;;;2.83;;
42066;SDS011;27734;47.028;28.820;2023-05-16T11:02:23;6.83;;;3.20;;
42066;SDS011;27734;47.028;28.820;2023-05-16T11:04:58;4.57;;;2.97;;
42066;SDS011;27734;47.028;28.820;2023-05-16T11:07:31;4.20;;;3.10;;
42066;SDS011;27734;47.028;28.820;2023-05-16T11:10:05;8.23;;;3.30;;
42066;SDS011;27734;47.028;28.820;2023-05-16T11:12:38;4.40;;;3.08;;
42066;SDS011;27734;47.028;28.820;2023-05-16T11:15:18;4.95;;;3.10;;
42066;SDS011;27734;47.028;28.820;2023-05-16T11:17:55;6.47;;;3.30;;
42066;SDS011;27734;47.028;28.820;2023-05-16T11:20:32;7.20;;;3.43;;
42066;SDS011;27734;47.028;28.820;2023-05-16T11:23:24;6.87;;;3.53;;
42066;SDS011;27734;47.028;28.820;2023-05-16T11:28:48;6.87;;;3.43;;
42066;SDS011;27734;47.028;28.820;2023-05-16T11:31:17;7.00;;;3.17;;
42066;SDS011;27734;47.028;28.820;2023-05-16T11:33:53;8.07;;;3.70;;
42066;SDS011;27734;47.028;28.820;2023-05-16T11:36:23;7.70;;;3.97;;
42066;SDS011;27734;47.028;28.820;2023-05-16T11:39:08;6.30;;;3.67;;
42066;SDS011;27734;47.028;28.820;2023-05-16T11:41:38;6.57;;;3.27;;
42066;SDS011;27734;47.028;28.820;2023-05-16T11:44:06;8.40;;;3.30;;
42066;SDS011;27734;47.028;28.820;2023-05-16T11:46:39;6.15;;;3.25;;
42066;SDS011;27734;47.028;28.820;2023-05-16T11:49:10;8.23;;;3.40;;
42066;SDS011;27734;47.028;28.820;2023-05-16T11:54:11;7.23;;;3.40;;
42066;SDS011;27734;47.028;28.820;2023-05-16T11:56:41;4.90;;;3.60;;
42066;SDS011;27734;47.028;28.820;2023-05-16T11:59:10;6.23;;;3.27;;
42066;SDS011;27734;47.028;28.820;2023-05-16T12:01:39;9.07;;;3.40;;
42066;SDS011;27734;47.028;28.820;2023-05-16T12:04:08;7.93;;;3.30;;
42066;SDS011;27734;47.028;28.820;2023-05-16T12:06:38;7.70;;;3.20;;
42066;SDS011;27734;47.028;28.820;2023-05-16T12:09:12;7.23;;;3.40;;
42066;SDS011;27734;47.028;28.820;2023-05-16T12:11:44;5.00;;;3.10;;
42066;SDS011;27734;47.028;28.820;2023-05-16T12:14:18;6.50;;;2.90;;
42066;SDS011;27734;47.028;28.820;2023-05-16T12:16:50;8.30;;;3.87;;
42066;SDS011;27734;47.028;28.820;2023-05-16T12:19:20;7.67;;;3.60;;
42066;SDS011;27734;47.028;28.820;2023-05-16T12:21:54;7.43;;;3.50;;
42066;SDS011;27734;47.028;28.820;2023-05-16T12:24:29;6.10;;;3.33;;
42066;SDS011;27734;47.028;28.820;2023-05-16T12:27:00;9.03;;;3.00;;
42066;SDS011;27734;47.028;28.820;2023-05-16T12:29:31;10.90;;;3.30;;
42066;SDS011;27734;47.028;28.820;2023-05-16T12:32:02;5.63;;;2.90;;
42066;SDS011;27734;47.028;28.820;2023-05-16T12:34:34;7.70;;;3.47;;
42066;SDS011;27734;47.028;28.820;2023-05-16T12:37:04;7.13;;;3.07;;
42066;SDS011;27734;47.028;28.820;2023-05-16T12:39:36;6.53;;;3.00;;
42066;SDS011;27734;47.028;28.820;2023-05-16T12:42:07;10.77;;;3.80;;
42066;SDS011;27734;47.028;28.820;2023-05-16T12:44:44;11.47;;;3.60;;
42066;SDS011;27734;47.028;28.820;2023-05-16T12:47:14;9.40;;;3.30;;
42066;SDS011;27734;47.028;28.820;2023-05-16T12:49:46;7.63;;;3.40;;
42066;SDS011;27734;47.028;28.820;2023-05-16T12:52:21;5.57;;;3.30;;
42066;SDS011;27734;47.028;28.820;2023-05-16T12:54:52;9.07;;;3.50;;
42066;SDS011;27734;47.028;28.820;2023-05-16T12:57:24;6.23;;;3.80;;
42066;SDS011;27734;47.028;28.820;2023-05-16T12:59:56;6.55;;;3.17;;
42066;SDS011;27734;47.028;28.820;2023-05-16T13:02:25;7.77;;;3.37;;
42066;SDS011;27734;47.028;28.820;2023-05-16T13:04:54;8.77;;;3.50;;
42066;SDS011;27734;47.028;28.820;2023-05-16T13:07:24;6.63;;;3.40;;
42066;SDS011;27734;47.028;28.820;2023-05-16T13:09:56;9.95;;;3.60;;
42066;SDS011;27734;47.028;28.820;2023-05-16T13:12:27;6.23;;;3.47;;
42066;SDS011;27734;47.028;28.820;2023-05-16T13:14:55;6.67;;;3.40;;
42066;SDS011;27734;47.028;28.820;2023-05-16T13:17:24;6.40;;;3.27;;
42066;SDS011;27734;47.028;28.820;2023-05-16T13:19:52;9.40;;;3.20;;
42066;SDS011;27734;47.028;28.820;2023-05-16T13:22:22;7.50;;;3.10;;
42066;SDS011;27734;47.028;28.820;2023-05-16T13:24:53;7.70;;;3.07;;
42066;SDS011;27734;47.028;28.820;2023-05-16T13:27:23;5.97;;;3.33;;
42066;SDS011;27734;47.028;28.820;2023-05-16T13:29:54;5.40;;;3.33;;
42066;SDS011;27734;47.028;28.820;2023-05-16T13:32:23;8.47;;;3.57;;
42066;SDS011;27734;47.028;28.820;2023-05-16T13:34:54;7.30;;;3.20;;
42066;SDS011;27734;47.028;28.820;2023-05-16T13:37:23;9.07;;;3.50;;
42066;SDS011;27734;47.028;28.820;2023-05-16T13:39:52;9.27;;;3.47;;
42066;SDS011;27734;47.028;28.820;2023-05-16T13:42:21;8.07;;;3.30;;
42066;SDS011;27734;47.028;28.820;2023-05-16T13:48:50;8.67;;;3.43;;
42066;SDS011;27734;47.028;28.820;2023-05-16T13:51:24;8.50;;;3.63;;
42066;SDS011;27734;47.028;28.820;2023-05-16T13:53:53;8.60;;;3.50;;
42066;SDS011;27734;47.028;28.820;2023-05-16T13:56:23;8.73;;;3.70;;
42066;SDS011;27734;47.028;28.820;2023-05-16T13:58:52;9.97;;;3.40;;
42066;SDS011;27734;47.028;28.820;2023-05-16T14:01:21;7.60;;;3.55;;
42066;SDS011;27734;47.028;28.820;2023-05-16T14:03:51;7.07;;;3.33;;
42066;SDS011;27734;47.028;28.820;2023-05-16T14:06:20;7.93;;;3.27;;
42066;SDS011;27734;47.028;28.820;2023-05-16T14:08:49;7.67;;;3.53;;
42066;SDS011;27734;47.028;28.820;2023-05-16T14:11:18;6.93;;;2.80;;
42066;SDS011;27734;47.028;28.820;2023-05-16T14:13:52;9.33;;;3.30;;
42066;SDS011;27734;47.028;28.820;2023-05-16T14:16:22;7.03;;;3.30;;
42066;SDS011;27734;47.028;28.820;2023-05-16T14:18:51;7.40;;;3.30;;
42066;SDS011;27734;47.028;28.820;2023-05-16T14:21:20;7.63;;;3.13;;
42066;SDS011;27734;47.028;28.820;2023-05-16T14:23:51;7.07;;;3.57;;
42066;SDS011;27734;47.028;28.820;2023-05-16T14:26:28;8.37;;;3.40;;
42066;SDS011;27734;47.028;28.820;2023-05-16T14:28:58;8.13;;;3.10;;
42066;SDS011;27734;47.028;28.820;2023-05-16T14:31:27;4.93;;;2.83;;
42066;SDS011;27734;47.028;28.820;2023-05-16T14:33:59;6.80;;;3.50;;
42066;SDS011;27734;47.028;28.820;2023-05-16T14:36:29;6.90;;;3.10;;
42066;SDS011;27734;47.028;28.820;2023-05-16T14:38:58;8.10;;;3.20;;
42066;SDS011;27734;47.028;28.820;2023-05-16T14:41:28;7.37;;;2.90;;
42066;SDS011;27734;47.028;28.820;2023-05-16T14:43:57;8.43;;;3.23;;
42066;SDS011;27734;47.028;28.820;2023-05-16T14:46:26;5.53;;;3.20;;
42066;SDS011;27734;47.028;28.820;2023-05-16T14:48:55;6.57;;;2.80;;
42066;SDS011;27734;47.028;28.820;2023-05-16T14:51:24;7.30;;;3.20;;
42066;SDS011;27734;47.028;28.820;2023-05-16T14:53:52;4.70;;;2.90;;
42066;SDS011;27734;47.028;28.820;2023-05-16T14:56:22;6.30;;;3.03;;
42066;SDS011;27734;47.028;28.820;2023-05-16T14:58:53;4.13;;;3.10;;
42066;SDS011;27734;47.028;28.820;2023-05-16T15:01:23;6.00;;;3.20;;
42066;SDS011;27734;47.028;28.820;2023-05-16T15:03:52;7.80;;;3.57;;
42066;SDS011;27734;47.028;28.820;2023-05-16T15:06:21;6.57;;;2.93;;
42066;SDS011;27734;47.028;28.820;2023-05-16T15:08:49;8.03;;;3.50;;
42066;SDS011;27734;47.028;28.820;2023-05-16T15:11:18;8.97;;;3.60;;
42066;SDS011;27734;47.028;28.820;2023-05-16T15:13:47;8.93;;;3.77;;
42066;SDS011;27734;47.028;28.820;2023-05-16T15:16:20;5.85;;;3.20;;
42066;SDS011;27734;47.028;28.820;2023-05-16T15:18:48;8.70;;;3.30;;